createdAt,value
2022-10-11T00:01:34.475Z,100095.69
2022-10-11T00:03:36.305Z,100097.53
2022-10-11T00:05:38.175Z,100090.44
2022-10-11T00:07:39.936Z,100099.47
2022-10-11T00:09:41.597Z,100091.41
2022-10-11T00:11:43.395Z,100090.44
2022-10-11T00:13:45.106Z,100092.38
2022-10-11T00:15:46.773Z,100085.31
2022-10-11T00:17:48.480Z,100086.16
2022-10-11T00:19:50.203Z,100089.81
2022-10-11T00:21:52.073Z,100085.41
2022-10-11T00:23:53.813Z,100082.72
2022-10-11T00:26:03.699Z,100084.34
2022-10-11T00:28:05.868Z,100080.78
2022-10-11T00:30:08.248Z,100080.66
2022-10-11T00:32:09.927Z,100084.34
2022-10-11T00:34:11.588Z,100083.34
2022-10-11T00:36:13.386Z,100079.06
2022-10-11T00:38:15.448Z,100076.50
2022-10-11T00:40:18.725Z,100077.25
2022-10-11T00:42:20.373Z,100074.56
2022-10-11T00:44:24.182Z,100075.53
2022-10-11T00:46:27.385Z,100071.88
2022-10-11T00:48:41.110Z,100073.59
2022-10-11T00:50:42.826Z,100076.28
2022-10-11T00:52:56.139Z,100073.59
2022-10-11T00:55:23.640Z,100072.59
2022-10-11T00:57:26.133Z,100070.91
2022-10-11T00:59:29.642Z,100073.69
2022-10-11T01:01:31.363Z,100069.19
2022-10-11T01:03:33.091Z,100069.19
2022-10-11T01:05:36.300Z,100071.00
2022-10-11T01:07:38.164Z,100066.63
2022-10-11T01:09:39.925Z,100068.22
2022-10-11T01:11:41.897Z,100071.75
2022-10-11T01:14:03.640Z,100075.41
2022-10-11T01:16:31.955Z,100070.91
2022-10-11T01:18:56.554Z,100072.59
2022-10-11T01:21:18.476Z,100074.44
2022-10-11T01:23:34.626Z,100070.91
2022-10-11T01:26:08.888Z,100072.59
2022-10-11T01:28:31.490Z,100072.59
2022-10-11T01:30:34.378Z,100074.31
2022-10-11T01:33:19.468Z,100074.31
2022-10-11T01:35:45.105Z,100069.06
2022-10-11T01:38:08.241Z,100067.22
2022-10-11T01:40:15.198Z,100071.75
2022-10-11T01:42:17.024Z,100072.59
2022-10-11T01:44:18.738Z,100070.66
2022-10-11T01:46:20.426Z,100072.59
2022-10-11T01:48:22.099Z,100070.91
2022-10-11T01:50:39.152Z,100074.44
2022-10-11T01:52:40.858Z,100072.59
2022-10-11T01:55:09.910Z,100069.19
2022-10-11T01:57:27.675Z,100065.41
2022-10-11T01:59:49.626Z,100067.22
2022-10-11T02:01:54.359Z,100061.63
2022-10-11T02:04:04.610Z,100067.00
2022-10-11T02:06:10.405Z,100071.50
2022-10-11T02:08:27.447Z,100066.13
2022-10-11T02:10:36.146Z,100072.59
2022-10-11T02:12:40.249Z,100070.03
2022-10-11T02:14:43.904Z,100066.50
2022-10-11T02:16:56.546Z,100062.94
2022-10-11T02:18:58.308Z,100056.59
2022-10-11T02:21:00.828Z,100061.84
2022-10-11T02:23:30.178Z,100061.13
2022-10-11T02:25:33.750Z,100067.34
2022-10-11T02:27:36.860Z,100054.03
2022-10-11T02:29:40.039Z,100067.47
2022-10-11T02:31:41.762Z,100055.00
2022-10-11T02:33:50.428Z,100055.00
2022-10-11T02:35:56.133Z,100063.91
2022-10-11T02:38:05.878Z,100061.25
2022-10-11T02:40:14.910Z,100061.25
2022-10-11T02:42:26.148Z,100065.75
2022-10-11T02:44:31.296Z,100056.72
2022-10-11T02:46:33.038Z,100070.03
2022-10-11T02:48:34.761Z,100068.31
2022-10-11T02:50:37.439Z,100066.63
2022-10-11T02:52:39.242Z,100074.66
2022-10-11T02:54:40.958Z,100069.28
2022-10-11T02:56:42.797Z,100070.25
2022-10-11T02:58:44.573Z,100073.81
2022-10-11T03:00:46.287Z,100067.69
2022-10-11T03:02:47.957Z,100071.34
2022-10-11T03:04:49.699Z,100075.00
2022-10-11T03:06:51.413Z,100080.38
2022-10-11T03:08:53.117Z,100076.84
2022-10-11T03:10:54.924Z,100074.03
2022-10-11T03:12:56.567Z,100077.69
2022-10-11T03:14:58.238Z,100070.72
2022-10-11T03:17:17.357Z,100069.97
2022-10-11T03:19:21.643Z,100069.88
2022-10-11T03:21:23.403Z,100067.19
2022-10-11T03:23:25.146Z,100053.75
2022-10-11T03:25:26.876Z,100068.88
2022-10-11T03:27:28.657Z,100065.34
2022-10-11T03:29:30.360Z,100058.16
2022-10-11T03:31:32.036Z,100053.75
2022-10-11T03:33:33.704Z,100055.47
2022-10-11T03:35:35.371Z,100057.16
2022-10-11T03:37:37.135Z,100051.91
2022-10-11T03:39:38.889Z,100046.22
2022-10-11T03:41:40.740Z,100046.38
2022-10-11T03:43:42.421Z,100043.19
2022-10-11T03:45:44.060Z,100042.31
2022-10-11T03:47:45.838Z,100045.97
2022-10-11T03:49:47.545Z,100038.88
2022-10-11T03:51:49.210Z,100041.78
2022-10-11T03:53:50.876Z,100042.78
2022-10-11T03:55:53.778Z,100036.75
2022-10-11T03:57:55.681Z,100039.22
2022-10-11T03:59:57.332Z,100037.13
2022-10-11T04:01:59.214Z,100036.41
2022-10-11T04:04:00.988Z,100038.00
2022-10-11T04:06:03.014Z,100041.44
2022-10-11T04:08:09.739Z,100038.97
2022-10-11T04:10:13.635Z,100042.84
2022-10-11T04:12:15.282Z,100044.59
2022-10-11T04:14:17.020Z,100041.31
2022-10-11T04:16:18.822Z,100039.31
2022-10-11T04:18:20.602Z,100051.16
2022-10-11T04:20:22.828Z,100039.44
2022-10-11T04:22:24.606Z,100036.56
2022-10-11T04:24:26.332Z,100036.31
2022-10-11T04:26:30.238Z,100040.84
2022-10-11T04:28:32.788Z,100046.22
2022-10-11T04:30:34.556Z,100040.34
2022-10-11T04:32:36.267Z,100040.25
2022-10-11T04:34:38.018Z,100042.56
2022-10-11T04:36:39.788Z,100035.34
2022-10-11T04:38:41.540Z,100043.19
2022-10-11T04:40:43.210Z,100033.41
2022-10-11T04:42:44.980Z,100044.06
2022-10-11T04:44:46.685Z,100042.09
2022-10-11T04:46:48.430Z,100036.56
2022-10-11T04:48:50.330Z,100038.31
2022-10-11T04:50:51.995Z,100035.47
2022-10-11T04:52:53.694Z,100035.47
2022-10-11T04:54:55.345Z,100032.78
2022-10-11T04:56:57.064Z,100038.91
2022-10-11T04:58:58.807Z,100033.53
2022-10-11T05:01:00.527Z,100027.91
2022-10-11T05:03:02.165Z,100029.97
2022-10-11T05:05:04.071Z,100036.34
2022-10-11T05:07:05.794Z,100038.19
2022-10-11T05:09:07.451Z,100026.53
2022-10-11T05:11:12.838Z,100031.06
2022-10-11T05:13:15.707Z,100037.44
2022-10-11T05:15:17.464Z,100034.75
2022-10-11T05:17:19.092Z,100029.38
2022-10-11T05:19:20.796Z,100033.03
2022-10-11T05:21:27.075Z,100037.44
2022-10-11T05:23:29.765Z,100033.91
2022-10-11T05:25:31.471Z,100033.03
2022-10-11T05:27:33.159Z,100031.31
2022-10-11T05:29:34.816Z,100037.56
2022-10-11T05:31:36.507Z,100032.16
2022-10-11T05:33:38.285Z,100034.97
2022-10-11T05:35:40.135Z,100031.44
2022-10-11T05:37:41.898Z,100034.97
2022-10-11T05:39:43.559Z,100031.56
2022-10-11T05:41:45.751Z,100029.72
2022-10-11T05:43:47.440Z,100036.94
2022-10-11T05:45:49.409Z,100031.56
2022-10-11T05:47:51.158Z,100029.84
2022-10-11T05:49:52.888Z,100031.56
2022-10-11T05:51:54.579Z,100031.56
2022-10-11T05:53:56.275Z,100028.13
2022-10-11T05:55:58.064Z,100035.22
2022-10-11T05:57:59.723Z,100033.53
2022-10-11T06:00:01.421Z,100025.44
2022-10-11T06:02:03.139Z,100019.09
2022-10-11T06:04:04.978Z,100027.16
2022-10-11T06:06:06.936Z,100026.41
2022-10-11T06:08:09.074Z,100019.09
2022-10-11T06:10:10.810Z,100022.75
2022-10-11T06:12:12.457Z,100024.56
2022-10-11T06:14:14.149Z,100017.38
2022-10-11T06:16:15.929Z,100019.09
2022-10-11T06:18:17.648Z,100017.38
2022-10-11T06:20:19.371Z,100019.09
2022-10-11T06:22:21.125Z,100012.75
2022-10-11T06:24:22.890Z,100008.44
2022-10-11T06:26:24.536Z,100011.00
2022-10-11T06:28:27.397Z,100017.38
2022-10-11T06:30:29.101Z,100013.69
2022-10-11T06:32:30.831Z,100014.56
2022-10-11T06:34:32.568Z,100017.38
2022-10-11T06:36:34.244Z,100019.09
2022-10-11T06:38:37.283Z,100021.88
2022-10-11T06:40:40.508Z,100013.69
2022-10-11T06:42:42.262Z,100022.75
2022-10-11T06:44:44.058Z,100019.09
2022-10-11T06:46:45.782Z,100012.97
2022-10-11T06:48:49.838Z,100011.13
2022-10-11T06:51:00.327Z,100012.97
2022-10-11T06:53:02.464Z,100011.00
2022-10-11T06:55:04.476Z,100014.56
2022-10-11T06:57:06.171Z,100013.69
2022-10-11T06:59:08.675Z,100011.13
2022-10-11T07:01:12.130Z,100013.69
2022-10-11T07:03:13.970Z,100005.75
2022-10-11T07:05:16.632Z,100013.69
2022-10-11T07:07:18.365Z,100009.31
2022-10-11T07:09:20.117Z,100006.63
2022-10-11T07:11:23.985Z,100004.88
2022-10-11T07:13:25.657Z,100009.16
2022-10-11T07:15:27.353Z,100005.63
2022-10-11T07:17:29.112Z,100003.06
2022-10-11T07:19:30.854Z,100009.31
2022-10-11T07:22:02.762Z,99998.56
2022-10-11T07:24:04.731Z,100003.94
2022-10-11T07:26:06.910Z,100000.25
2022-10-11T07:28:08.919Z,100012.00
2022-10-11T07:30:11.124Z,100006.47
2022-10-11T07:32:12.813Z,100002.94
2022-10-11T07:34:14.506Z,100001.25
2022-10-11T07:36:16.414Z,100003.94
2022-10-11T07:38:18.117Z,99998.56
2022-10-11T07:40:19.780Z,100001.25
2022-10-11T07:42:21.436Z,100000.25
2022-10-11T07:44:23.179Z,100001.25
2022-10-11T07:46:24.864Z,100001.09
2022-10-11T07:48:26.592Z,99995.88
2022-10-11T07:50:28.299Z,100000.38
2022-10-11T07:52:30.009Z,100003.94
2022-10-11T07:54:31.687Z,99997.56
2022-10-11T07:56:33.440Z,99995.88
2022-10-11T07:58:35.144Z,99994.97
2022-10-11T08:00:36.860Z,99992.28
2022-10-11T08:02:38.584Z,99989.59
2022-10-11T08:04:40.366Z,99995.88
2022-10-11T08:06:42.063Z,99997.56
2022-10-11T08:08:43.718Z,99994.97
2022-10-11T08:10:45.526Z,99995.88
2022-10-11T08:12:47.895Z,99987.66
2022-10-11T08:14:49.487Z,99985.09
2022-10-11T08:16:51.132Z,99985.09
2022-10-11T08:18:52.798Z,99982.41
2022-10-11T08:20:54.477Z,99986.81
2022-10-11T08:22:56.111Z,99978.72
2022-10-11T08:24:57.792Z,99985.09
2022-10-11T08:26:59.516Z,99973.47
2022-10-11T08:29:01.423Z,99974.47
2022-10-11T08:31:03.221Z,99974.34
2022-10-11T08:33:08.364Z,99970.66
2022-10-11T08:35:10.470Z,99973.47
2022-10-11T08:37:12.144Z,99968.97
2022-10-11T08:39:14.122Z,99958.22
2022-10-11T08:41:28.785Z,99963.59
2022-10-11T08:43:37.400Z,99961.84
2022-10-11T08:45:44.538Z,99965.28
2022-10-11T08:47:46.242Z,99957.31
2022-10-11T08:49:47.911Z,99960.00
2022-10-11T08:51:59.939Z,99947.44
2022-10-11T08:54:12.180Z,99950.88
2022-10-11T08:56:14.092Z,99946.47
2022-10-11T08:58:21.061Z,99951.84
2022-10-11T09:00:23.526Z,99938.38
2022-10-11T09:03:08.042Z,99936.69
2022-10-11T09:05:13.876Z,99935.81
2022-10-11T09:07:30.464Z,99943.75
2022-10-11T09:09:53.625Z,99936.69
2022-10-11T09:12:29.517Z,99938.38
2022-10-11T09:14:52.243Z,99933.84
2022-10-11T09:17:12.569Z,99927.63
2022-10-11T09:19:38.646Z,99928.63
2022-10-11T09:21:45.847Z,99916.88
2022-10-11T09:24:12.513Z,99922.25
2022-10-11T09:26:38.897Z,99916.88
2022-10-11T09:28:51.035Z,99914.28
2022-10-11T09:30:53.084Z,99911.50
2022-10-11T09:33:11.131Z,99911.50
2022-10-11T09:35:18.196Z,99901.59
2022-10-11T09:37:29.878Z,99906.09
2022-10-11T09:39:35.317Z,99898.03
2022-10-11T09:41:42.984Z,99900.72
2022-10-11T09:43:48.226Z,99902.47
2022-10-11T09:45:49.980Z,99896.19
2022-10-11T09:47:52.780Z,99898.88
2022-10-11T09:50:14.641Z,99894.41
2022-10-11T09:52:20.996Z,99893.50
2022-10-11T09:54:39.682Z,99885.44
2022-10-11T09:56:43.837Z,99889.00
2022-10-11T09:58:45.525Z,99886.31
2022-10-11T10:00:47.205Z,99887.16
2022-10-11T10:02:56.093Z,99887.16
2022-10-11T10:05:01.772Z,99885.31
2022-10-11T10:07:10.386Z,99883.63
2022-10-11T10:09:30.051Z,99883.63
2022-10-11T10:11:36.480Z,99884.47
2022-10-11T10:13:46.077Z,99879.09
2022-10-11T10:15:49.319Z,99876.53
2022-10-11T10:17:52.094Z,99869.31
2022-10-11T10:19:54.975Z,99870.19
2022-10-11T10:21:56.704Z,99871.88
2022-10-11T10:23:59.220Z,99862.13
2022-10-11T10:26:30.052Z,99866.50
2022-10-11T10:28:31.806Z,99861.13
2022-10-11T10:30:35.637Z,99861.00
2022-10-11T10:32:51.574Z,99857.44
2022-10-11T10:35:15.935Z,99853.91
2022-10-11T10:37:32.435Z,99847.66
2022-10-11T10:39:50.189Z,99850.34
2022-10-11T10:41:51.985Z,99849.50
2022-10-11T10:43:56.337Z,99844.97
2022-10-11T10:45:57.804Z,99844.13
2022-10-11T10:48:42.272Z,99845.81
2022-10-11T10:51:01.104Z,99830.69
2022-10-11T10:53:52.993Z,99836.78
2022-10-11T10:56:17.493Z,99833.22
2022-10-11T10:58:40.079Z,99835.06
2022-10-11T11:00:44.596Z,99829.56
2022-10-11T11:03:02.484Z,99819.78
2022-10-11T11:05:41.226Z,99816.25
2022-10-11T11:08:09.856Z,99812.72
2022-10-11T11:10:20.263Z,99817.09
2022-10-11T11:12:48.672Z,99813.56
2022-10-11T11:14:59.908Z,99810.88
2022-10-11T11:17:27.262Z,99810.75
2022-10-11T11:19:57.653Z,99803.63
2022-10-11T11:22:10.831Z,99809.03
2022-10-11T11:24:21.122Z,99800.84
2022-10-11T11:26:44.539Z,99795.56
2022-10-11T11:29:01.119Z,99800.00
2022-10-11T11:31:21.711Z,99787.50
2022-10-11T11:33:23.233Z,99788.38
2022-10-11T11:35:33.343Z,99792.88
2022-10-11T11:37:36.983Z,99785.53
2022-10-11T11:40:15.587Z,99782.00
2022-10-11T11:42:23.202Z,99781.16
2022-10-11T11:44:32.983Z,99778.47
2022-10-11T11:46:38.574Z,99778.47
2022-10-11T11:48:40.278Z,99776.50
2022-10-11T11:50:43.341Z,99775.66
2022-10-11T11:52:47.107Z,99765.75
2022-10-11T11:55:03.763Z,99769.41
2022-10-11T11:57:24.373Z,99770.28
2022-10-11T11:59:44.695Z,99768.56
2022-10-11T12:02:40.378Z,99768.44
2022-10-11T12:04:42.894Z,99763.78
2022-10-11T12:07:11.111Z,99762.06
2022-10-11T12:09:18.457Z,99750.47
2022-10-11T12:11:41.305Z,99762.91
2022-10-11T12:13:42.981Z,99753.03
2022-10-11T12:15:56.665Z,99758.41
2022-10-11T12:18:03.113Z,99751.31
2022-10-11T12:20:13.010Z,99745.94
2022-10-11T12:22:18.534Z,99753.03
2022-10-11T12:24:20.099Z,99751.19
2022-10-11T12:26:27.619Z,99743.97
2022-10-11T12:28:38.430Z,99744.97
2022-10-11T12:30:48.877Z,99748.50
2022-10-11T12:32:50.932Z,99744.97
2022-10-11T12:34:52.689Z,99740.44
2022-10-11T12:36:54.404Z,99735.91
2022-10-11T12:39:20.925Z,99738.59
2022-10-11T12:41:25.299Z,99734.91
2022-10-11T12:43:28.036Z,99733.22
2022-10-11T12:45:31.117Z,99734.91
2022-10-11T12:47:37.760Z,99735.78
2022-10-11T12:49:54.167Z,99731.25
2022-10-11T12:51:58.935Z,99731.25
2022-10-11T12:54:26.658Z,99726.59
2022-10-11T12:56:44.110Z,99723.91
2022-10-11T12:58:48.987Z,99720.22
2022-10-11T13:00:53.233Z,99713.88
2022-10-11T13:02:56.004Z,99709.22
2022-10-11T13:05:35.217Z,99710.81
2022-10-11T13:07:37.055Z,99707.00
2022-10-11T13:09:39.313Z,99696.97
2022-10-11T13:12:07.754Z,99697.81
2022-10-11T13:14:20.836Z,99698.38
2022-10-11T13:16:28.218Z,99698.28
2022-10-11T13:18:30.142Z,99696.19
2022-10-11T13:20:36.269Z,99702.25
2022-10-11T13:22:40.591Z,99695.75
2022-10-11T13:24:42.285Z,99692.09
2022-10-11T13:26:45.417Z,99692.00
2022-10-11T13:28:47.116Z,99694.78
2022-10-11T13:30:51.304Z,99690.06
2022-10-11T13:32:54.650Z,99691.31
2022-10-11T13:35:02.867Z,99697.66
2022-10-11T13:37:04.814Z,99689.75
2022-10-11T13:39:06.551Z,99691.59
2022-10-11T13:41:11.561Z,99696.47
2022-10-11T13:43:13.318Z,99690.59
2022-10-11T13:45:17.079Z,99692.66
2022-10-11T13:47:20.489Z,99686.59
2022-10-11T13:49:26.149Z,99685.97
2022-10-11T13:51:33.344Z,99691.63
2022-10-11T13:53:35.318Z,99692.75
2022-10-11T13:55:50.097Z,99691.16
2022-10-11T13:57:51.770Z,99686.75
2022-10-11T13:59:53.528Z,99686.75
2022-10-11T14:01:58.629Z,99689.81
2022-10-11T14:04:01.719Z,99691.63
2022-10-11T14:06:03.873Z,99693.81
2022-10-11T14:08:08.033Z,99686.69
2022-10-11T14:10:21.177Z,99696.66
2022-10-11T14:12:39.932Z,99688.22
2022-10-11T14:14:42.018Z,99686.09
2022-10-11T14:16:48.075Z,99682.41
2022-10-11T14:18:50.993Z,99687.38
2022-10-11T14:20:52.685Z,99687.97
2022-10-11T14:22:54.670Z,99685.69
2022-10-11T14:24:56.558Z,99684.56
2022-10-11T14:26:58.513Z,99679.59
2022-10-11T14:29:01.825Z,99678.31
2022-10-11T14:31:03.741Z,99682.28
2022-10-11T14:33:05.733Z,99679.84
2022-10-11T14:35:10.352Z,99679.28
2022-10-11T14:37:13.645Z,99683.06
2022-10-11T14:39:23.757Z,99687.50
2022-10-11T14:41:25.433Z,99687.91
2022-10-11T14:43:27.181Z,99681.50
2022-10-11T14:45:28.873Z,99686.38
2022-10-11T14:47:30.961Z,99683.41
2022-10-11T14:49:34.734Z,99689.25
2022-10-11T14:51:36.525Z,99691.69
2022-10-11T14:53:40.873Z,99686.81
2022-10-11T14:55:42.907Z,99685.50
2022-10-11T14:57:44.766Z,99687.59
2022-10-11T14:59:49.948Z,99684.50
2022-10-11T15:01:51.973Z,99695.06
2022-10-11T15:03:53.731Z,99694.63
2022-10-11T15:05:55.455Z,99701.56
2022-10-11T15:07:57.625Z,99697.44
2022-10-11T15:09:59.312Z,99699.16
2022-10-11T15:12:01.014Z,99701.84
2022-10-11T15:14:02.692Z,99703.53
2022-10-11T15:16:04.806Z,99705.25
2022-10-11T15:18:07.439Z,99700.44
2022-10-11T15:20:21.959Z,99707.53
2022-10-11T15:22:23.778Z,99702.31
2022-10-11T15:24:25.568Z,99704.13
2022-10-11T15:26:28.493Z,99705.97
2022-10-11T15:28:31.482Z,99696.84
2022-10-11T15:30:41.080Z,99701.56
2022-10-11T15:32:43.580Z,99709.22
2022-10-11T15:34:45.293Z,99697.44
2022-10-11T15:36:47.285Z,99704.94
2022-10-11T15:38:49.370Z,99707.53
2022-10-11T15:40:51.082Z,99709.09
2022-10-11T15:42:53.787Z,99705.28
2022-10-11T15:44:55.463Z,99709.53
2022-10-11T15:46:57.536Z,99702.84
2022-10-11T15:49:02.191Z,99706.25
2022-10-11T15:51:06.179Z,99704.28
2022-10-11T15:53:15.772Z,99705.53
2022-10-11T15:55:18.041Z,99706.41
2022-10-11T15:57:20.120Z,99705.44
2022-10-11T15:59:21.868Z,99702.75
2022-10-11T16:01:23.636Z,99708.44
2022-10-11T16:03:26.767Z,99709.25
2022-10-11T16:05:28.658Z,99708.16
2022-10-11T16:07:30.447Z,99705.88
2022-10-11T16:09:32.429Z,99712.41
2022-10-11T16:11:34.100Z,99709.28
2022-10-11T16:13:35.937Z,99710.38
2022-10-11T16:15:38.851Z,99704.75
2022-10-11T16:17:40.602Z,99702.75
2022-10-11T16:19:42.375Z,99705.13
2022-10-11T16:21:44.310Z,99706.41
2022-10-11T16:23:46.004Z,99711.22
2022-10-11T16:25:56.904Z,99704.25
2022-10-11T16:27:58.877Z,99701.94
2022-10-11T16:30:00.851Z,99705.59
2022-10-11T16:32:02.566Z,99706.66
2022-10-11T16:34:04.603Z,99704.03
2022-10-11T16:36:07.233Z,99696.19
2022-10-11T16:38:09.701Z,99693.44
2022-10-11T16:40:12.290Z,99697.50
2022-10-11T16:42:14.256Z,99690.50
2022-10-11T16:44:17.685Z,99693.59
2022-10-11T16:46:19.847Z,99691.16
2022-10-11T16:48:21.613Z,99683.44
2022-10-11T16:50:23.285Z,99690.78
2022-10-11T16:52:25.197Z,99692.91
2022-10-11T16:54:26.962Z,99688.16
2022-10-11T16:56:29.072Z,99685.72
2022-10-11T16:58:30.771Z,99692.19
2022-10-11T17:00:32.559Z,99685.81
2022-10-11T17:02:34.348Z,99688.81
2022-10-11T17:04:36.137Z,99681.75
2022-10-11T17:06:37.946Z,99682.84
2022-10-11T17:08:39.764Z,99681.28
2022-10-11T17:10:41.767Z,99679.88
2022-10-11T17:12:47.725Z,99681.75
2022-10-11T17:14:51.665Z,99681.38
2022-10-11T17:16:54.286Z,99672.59
2022-10-11T17:18:56.051Z,99668.69
2022-10-11T17:21:05.099Z,99668.88
2022-10-11T17:23:06.851Z,99670.94
2022-10-11T17:25:08.843Z,99667.78
2022-10-11T17:27:10.706Z,99669.03
2022-10-11T17:29:13.694Z,99663.94
2022-10-11T17:31:15.485Z,99660.38
2022-10-11T17:33:19.774Z,99666.56
2022-10-11T17:35:21.570Z,99659.16
2022-10-11T17:37:23.207Z,99657.97
2022-10-11T17:39:25.516Z,99659.13
2022-10-11T17:41:31.852Z,99652.53
2022-10-11T17:43:34.427Z,99658.94
2022-10-11T17:45:36.480Z,99655.09
2022-10-11T17:47:38.898Z,99648.56
2022-10-11T17:49:40.814Z,99655.81
2022-10-11T17:51:42.644Z,99650.38
2022-10-11T17:53:50.536Z,99657.78
2022-10-11T17:55:52.998Z,99659.84
2022-10-11T17:57:54.705Z,99651.75
2022-10-11T17:59:56.436Z,99654.09
2022-10-11T18:01:58.378Z,99664.69
2022-10-11T18:04:01.525Z,99661.81
2022-10-11T18:06:06.994Z,99662.38
2022-10-11T18:08:08.752Z,99663.59
2022-10-11T18:10:10.588Z,99666.91
2022-10-11T18:12:12.368Z,99659.13
2022-10-11T18:14:14.362Z,99657.84
2022-10-11T18:16:18.934Z,99659.19
2022-10-11T18:18:21.081Z,99660.19
2022-10-11T18:20:22.743Z,99649.44
2022-10-11T18:22:24.615Z,99655.53
2022-10-11T18:24:27.464Z,99658.47
2022-10-11T18:26:30.936Z,99658.75
2022-10-11T18:28:35.473Z,99658.59
2022-10-11T18:30:44.495Z,99660.56
2022-10-11T18:32:46.212Z,99653.88
2022-10-11T18:34:49.257Z,99655.88
2022-10-11T18:36:51.067Z,99650.69
2022-10-11T18:38:54.347Z,99649.47
2022-10-11T18:40:56.146Z,99650.16
2022-10-11T18:42:58.008Z,99641.19
2022-10-11T18:44:59.867Z,99641.59
2022-10-11T18:47:01.707Z,99637.53
2022-10-11T18:49:03.560Z,99639.09
2022-10-11T18:51:07.047Z,99636.53
2022-10-11T18:53:08.998Z,99635.97
2022-10-11T18:55:12.310Z,99635.25
2022-10-11T18:57:15.098Z,99633.09
2022-10-11T18:59:16.770Z,99634.19
2022-10-11T19:01:29.542Z,99631.88
2022-10-11T19:03:34.942Z,99627.63
2022-10-11T19:05:39.230Z,99630.72
2022-10-11T19:07:40.868Z,99622.63
2022-10-11T19:09:42.714Z,99622.63
2022-10-11T19:11:44.459Z,99616.69
2022-10-11T19:13:46.286Z,99610.41
2022-10-11T19:15:48.056Z,99611.41
2022-10-11T19:17:49.839Z,99606.88
2022-10-11T19:19:51.520Z,99614.13
2022-10-11T19:21:53.320Z,99606.31
2022-10-11T19:23:55.404Z,99606.56
2022-10-11T19:25:57.647Z,99604.88
2022-10-11T19:27:59.397Z,99599.75
2022-10-11T19:30:01.106Z,99612.34
2022-10-11T19:32:03.030Z,99606.97
2022-10-11T19:34:11.127Z,99602.69
2022-10-11T19:36:13.245Z,99610.06
2022-10-11T19:38:15.110Z,99607.63
2022-10-11T19:40:17.319Z,99605.94
2022-10-11T19:42:19.122Z,99607.63
2022-10-11T19:44:20.828Z,99609.59
2022-10-11T19:48:44.347Z,99614.13
2022-10-11T19:50:46.035Z,99613.28
2022-10-11T19:52:47.706Z,99612.16
2022-10-11T19:54:49.380Z,99607.91
2022-10-11T19:56:51.209Z,99607.91
2022-10-11T19:58:52.937Z,99614.25
2022-10-11T20:01:06.294Z,99608.19
2022-10-11T20:03:08.197Z,99603.03
2022-10-11T20:05:09.986Z,99605.72
2022-10-11T20:07:11.693Z,99600.50
2022-10-11T20:09:30.378Z,99601.47
2022-10-11T20:11:32.207Z,99607.00
2022-10-11T20:13:35.116Z,99599.03
2022-10-11T20:15:39.866Z,99606.28
2022-10-11T20:17:41.615Z,99600.75
2022-10-11T20:19:43.318Z,99599.03
2022-10-11T20:21:45.336Z,99600.16
2022-10-11T20:23:47.592Z,99598.44
2022-10-11T20:26:03.047Z,99600.16
2022-10-11T20:28:04.809Z,99605.78
2022-10-11T20:30:06.894Z,99607.63
2022-10-11T20:32:08.658Z,99605.94
2022-10-11T20:34:10.454Z,99596.13
2022-10-11T20:36:14.166Z,99592.59
2022-10-11T20:38:15.913Z,99598.97
2022-10-11T20:40:17.772Z,99589.91
2022-10-11T20:42:19.467Z,99596.06
2022-10-11T20:44:21.200Z,99590.13
2022-10-11T20:46:24.531Z,99593.53
2022-10-11T20:48:26.212Z,99589.97
2022-10-11T20:50:27.923Z,99591.09
2022-10-11T20:52:29.628Z,99590.69
2022-10-11T20:54:31.340Z,99584.59
2022-10-11T20:56:33.203Z,99585.59
2022-10-11T20:58:34.879Z,99589.28
2022-10-11T21:00:38.371Z,99590.25
2022-10-11T21:02:40.188Z,99581.41
2022-10-11T21:04:41.839Z,99579.50
2022-10-11T21:06:43.538Z,99582.19
2022-10-11T21:08:45.276Z,99573.13
2022-10-11T21:10:53.920Z,99581.22
2022-10-11T21:12:55.664Z,99577.25
2022-10-11T21:14:57.341Z,99575.56
2022-10-11T21:16:59.072Z,99573.13
2022-10-11T21:19:01.231Z,99571.41
2022-10-11T21:21:12.977Z,99580.44
2022-10-11T21:23:14.847Z,99577.03
2022-10-11T21:25:16.712Z,99579.56
2022-10-11T21:27:18.381Z,99579.72
2022-10-11T21:29:20.170Z,99582.53
2022-10-11T21:31:22.304Z,99583.53
2022-10-11T21:33:24.009Z,99586.06
2022-10-11T21:35:28.615Z,99578.28
2022-10-11T21:37:30.312Z,99573.75
2022-10-11T21:39:32.078Z,99578.28
2022-10-11T21:41:33.784Z,99574.72
2022-10-11T21:43:35.659Z,99565.66
2022-10-11T21:45:37.918Z,99567.50
2022-10-11T21:47:39.927Z,99565.09
2022-10-11T21:49:41.785Z,99566.78
2022-10-11T21:51:43.667Z,99564.09
2022-10-11T21:53:45.302Z,99562.41
2022-10-11T21:55:47.064Z,99564.25
2022-10-11T21:57:48.776Z,99561.69
2022-10-11T21:59:50.493Z,99563.38
2022-10-11T22:01:52.266Z,99565.34
2022-10-11T22:03:54.223Z,99569.03
2022-10-11T22:05:55.943Z,99563.38
2022-10-11T22:07:57.694Z,99562.91
2022-10-11T22:09:59.371Z,99569.03
2022-10-11T22:12:02.096Z,99562.66
2022-10-11T22:14:03.857Z,99561.06
2022-10-11T22:16:06.663Z,99564.63
2022-10-11T22:18:08.377Z,99558.25
2022-10-11T22:20:10.292Z,99561.06
2022-10-11T22:22:12.052Z,99557.53
2022-10-11T22:24:13.785Z,99557.28
2022-10-11T22:26:17.405Z,99557.41
2022-10-11T22:28:19.248Z,99556.56
2022-10-11T22:30:20.966Z,99555.13
2022-10-11T22:32:22.714Z,99552.53
2022-10-11T22:34:24.440Z,99560.75
2022-10-11T22:36:26.980Z,99564.41
2022-10-11T22:38:28.805Z,99555.13
2022-10-11T22:40:30.586Z,99553.16
2022-10-11T22:42:32.284Z,99552.16
2022-10-11T22:44:34.062Z,99548.34
2022-10-11T22:46:35.797Z,99548.34
2022-10-11T22:48:37.500Z,99550.31
2022-10-11T22:50:39.452Z,99560.94
2022-10-11T22:52:41.189Z,99554.84
2022-10-11T22:54:42.965Z,99553.16
2022-10-11T22:56:44.718Z,99546.22
2022-10-11T22:58:46.386Z,99541.78
2022-10-11T23:00:48.067Z,99531.03
2022-10-11T23:02:49.809Z,99531.88
2022-10-11T23:04:51.570Z,99535.31
2022-10-11T23:06:53.313Z,99539.00
2022-10-11T23:08:58.450Z,99532.75
2022-10-11T23:11:04.638Z,99532.03
2022-10-11T23:13:06.405Z,99533.72
2022-10-11T23:15:08.410Z,99528.22
2022-10-11T23:17:10.115Z,99530.91
2022-10-11T23:19:11.809Z,99538.00
2022-10-11T23:21:13.508Z,99530.31
2022-10-11T23:23:15.244Z,99530.47
2022-10-11T23:25:17.170Z,99533.88
2022-10-11T23:27:18.935Z,99525.94
2022-10-11T23:29:20.673Z,99530.47
2022-10-11T23:31:22.441Z,99527.50
2022-10-11T23:33:24.176Z,99537.25
2022-10-11T23:35:25.936Z,99537.25
2022-10-11T23:37:27.642Z,99545.47
2022-10-11T23:39:29.352Z,99542.66
2022-10-11T23:41:31.211Z,99541.94
2022-10-11T23:43:32.919Z,99533.88
2022-10-11T23:45:34.624Z,99542.78
2022-10-11T23:47:36.675Z,99531.19
2022-10-11T23:49:38.632Z,99534.72
2022-10-11T23:51:40.318Z,99530.19
2022-10-11T23:53:42.320Z,99530.19
2022-10-11T23:55:44.003Z,99529.19
2022-10-11T23:57:45.719Z,99533.63
2022-10-11T23:59:47.513Z,99521.84
